Time;durP1;ratioP1;P1;durP2;ratioP2;P2;SDS_P1;SDS_P2;PMS_P1;PMS_P2;Temp;Humidity;BMP_temperature;BMP_pressure;BME280_temperature;BME280_humidity;BME280_pressure;Samples;Min_cycle;Max_cycle;Signal;HPM_P1;HPM_P2
2021/01/21 00:00:23;;;;;;;18.67;7.97;;;6.50;84.60;;;;;;5035429;28;20022;-50
2021/01/21 00:02:49;;;;;;;18.67;7.38;;;6.50;84.70;;;;;;5035806;28;20029;-49
2021/01/21 00:05:14;;;;;;;20.05;8.02;;;6.50;84.70;;;;;;5031124;28;20320;-49
2021/01/21 00:07:40;;;;;;;16.58;7.45;;;6.40;84.70;;;;;;5015653;28;20033;-49
2021/01/21 00:10:06;;;;;;;17.77;7.32;;;6.50;84.70;;;;;;5015663;28;20435;-49
2021/01/21 00:12:32;;;;;;;19.17;7.18;;;6.50;84.60;;;;;;5015722;28;20644;-49
2021/01/21 00:14:58;;;;;;;17.98;6.85;;;6.50;84.70;;;;;;5016757;28;20054;-49
2021/01/21 00:17:23;;;;;;;17.48;7.97;;;6.50;84.60;;;;;;5015334;28;20026;-50
2021/01/21 00:19:49;;;;;;;17.38;6.95;;;6.50;84.60;;;;;;5015592;28;20332;-49
2021/01/21 00:22:15;;;;;;;22.67;8.00;;;6.50;84.70;;;;;;5025195;28;20030;-49
2021/01/21 00:24:40;;;;;;;16.63;7.72;;;6.50;84.60;;;;;;5034953;28;20028;-50
2021/01/21 00:27:06;;;;;;;13.00;7.18;;;6.50;84.60;;;;;;5034127;28;20030;-50
2021/01/21 00:29:31;;;;;;;22.73;8.05;;;6.50;84.60;;;;;;5034912;28;20439;-49
2021/01/21 00:31:58;;;;;;;20.42;7.50;;;6.50;84.60;;;;;;5035447;28;20763;-49
2021/01/21 00:34:24;;;;;;;26.70;8.38;;;6.50;84.60;;;;;;5035455;28;20025;-50
2021/01/21 00:36:50;;;;;;;21.55;8.63;;;6.50;84.60;;;;;;5033274;28;20044;-50
2021/01/21 00:39:16;;;;;;;25.58;8.18;;;6.50;84.60;;;;;;5034676;28;20045;-49
2021/01/21 00:41:41;;;;;;;17.80;7.60;;;6.50;84.60;;;;;;5034989;28;20112;-49
2021/01/21 00:44:07;;;;;;;15.15;7.30;;;6.50;84.60;;;;;;5034796;28;20105;-49
2021/01/21 00:46:33;;;;;;;15.48;7.53;;;6.50;84.60;;;;;;5032932;28;20455;-49
2021/01/21 00:48:58;;;;;;;27.27;8.05;;;6.50;84.60;;;;;;5034045;28;20447;-49
2021/01/21 00:51:26;;;;;;;20.75;8.23;;;6.50;84.60;;;;;;5014111;28;20026;-49
2021/01/21 00:53:52;;;;;;;12.77;5.82;;;6.50;84.60;;;;;;5015186;28;20037;-49
2021/01/21 00:56:17;;;;;;;15.00;6.47;;;6.50;84.60;;;;;;5014927;28;20072;-50
2021/01/21 00:58:43;;;;;;;14.30;7.47;;;6.50;84.60;;;;;;5015510;28;20042;-49
2021/01/21 01:01:09;;;;;;;17.73;7.60;;;6.50;84.60;;;;;;5014779;28;20124;-49
2021/01/21 01:03:34;;;;;;;14.82;7.00;;;6.50;84.50;;;;;;5015093;28;20117;-49
2021/01/21 01:06:04;;;;;;;17.27;7.30;;;6.50;84.60;;;;;;5023790;28;20128;-49
2021/01/21 01:08:34;;;;;;;17.17;7.20;;;6.50;84.60;;;;;;5020992;28;20061;-50
2021/01/21 01:11:00;;;;;;;20.60;7.78;;;6.50;84.60;;;;;;5014797;28;20038;-49
2021/01/21 01:13:25;;;;;;;15.27;7.40;;;6.50;84.60;;;;;;5014771;28;20145;-49
2021/01/21 01:15:51;;;;;;;13.10;6.43;;;6.50;84.60;;;;;;5014898;28;20076;-49
2021/01/21 01:18:17;;;;;;;14.68;6.65;;;6.50;85.40;;;;;;5015399;28;20040;-49
2021/01/21 01:20:43;;;;;;;15.43;6.85;;;6.50;84.70;;;;;;5014411;28;20030;-49
2021/01/21 01:23:09;;;;;;;16.90;6.57;;;6.50;84.60;;;;;;5014451;28;20094;-49
2021/01/21 01:25:35;;;;;;;12.68;6.60;;;6.50;84.60;;;;;;5014395;28;20444;-49
2021/01/21 01:28:02;;;;;;;10.75;5.95;;;6.50;84.60;;;;;;5015055;28;20079;-50
2021/01/21 01:30:28;;;;;;;12.43;6.40;;;6.50;84.60;;;;;;5014088;28;20598;-50
2021/01/21 01:32:54;;;;;;;14.75;7.13;;;6.50;84.60;;;;;;5014106;28;20125;-49
2021/01/21 01:35:19;;;;;;;25.42;7.75;;;6.50;84.70;;;;;;5014375;28;20107;-49
2021/01/21 01:37:45;;;;;;;14.98;6.95;;;6.50;84.70;;;;;;5013971;28;20499;-50
2021/01/21 01:40:13;;;;;;;19.58;7.97;;;6.40;84.50;;;;;;5015394;28;20352;-50
2021/01/21 01:42:39;;;;;;;17.35;6.15;;;6.40;85.30;;;;;;5013782;28;20057;-49
2021/01/21 01:45:06;;;;;;;16.83;7.43;;;6.40;84.60;;;;;;5017432;28;20040;-49
2021/01/21 01:47:33;;;;;;;18.33;7.22;;;6.40;84.60;;;;;;5033905;28;20035;-49
2021/01/21 01:49:59;;;;;;;17.65;8.05;;;6.50;84.60;;;;;;5031829;28;20029;-49
2021/01/21 01:52:27;;;;;;;15.80;7.68;;;6.50;84.60;;;;;;5033765;28;20026;-50
2021/01/21 01:54:53;;;;;;;16.52;6.68;;;6.40;84.60;;;;;;5033659;28;20060;-49
2021/01/21 01:57:22;;;;;;;11.15;6.28;;;6.50;84.70;;;;;;5033295;28;20358;-49
2021/01/21 01:59:50;;;;;;;15.70;7.32;;;6.50;84.70;;;;;;5028502;28;20040;-49
2021/01/21 02:02:16;;;;;;;13.23;5.88;;;6.40;84.70;;;;;;5035177;28;20025;-49
2021/01/21 02:04:42;;;;;;;13.15;6.90;;;6.50;84.70;;;;;;5029152;28;20056;-49
2021/01/21 02:07:07;;;;;;;14.43;6.40;;;6.50;84.70;;;;;;5031980;28;20029;-49
2021/01/21 02:09:34;;;;;;;15.95;6.70;;;6.40;84.60;;;;;;5033149;28;20036;-49
2021/01/21 02:12:08;;;;;;;15.93;6.82;;;6.40;84.60;;;;;;5018808;28;20065;-49
2021/01/21 02:14:45;;;;;;;11.73;6.65;;;6.50;84.60;;;;;;5013776;28;20057;-49
2021/01/21 02:17:34;;;;;;;12.30;6.45;;;6.40;84.60;;;;;;5013532;28;20062;-50
2021/01/21 02:20:08;;;;;;;12.57;6.88;;;6.40;84.60;;;;;;5013164;28;20042;-49
2021/01/21 02:23:11;;;;;;;9.95;5.90;;;6.40;84.70;;;;;;5014880;28;20030;-49
2021/01/21 02:25:47;;;;;;;13.02;6.65;;;6.50;84.70;;;;;;5013559;28;20038;-49
2021/01/21 02:28:37;;;;;;;11.20;6.20;;;6.50;84.70;;;;;;5013437;28;20045;-50
2021/01/21 02:31:14;;;;;;;10.73;6.32;;;6.40;84.60;;;;;;5013749;28;20018;-49
2021/01/21 02:33:55;;;;;;;16.38;6.72;;;6.40;84.70;;;;;;5014335;28;20061;-50
2021/01/21 02:36:26;;;;;;;18.15;6.63;;;6.40;84.70;;;;;;5013415;28;20034;-49
2021/01/21 02:38:53;;;;;;;15.80;7.22;;;6.50;84.70;;;;;;5018358;28;20060;-50
2021/01/21 02:41:19;;;;;;;10.63;6.80;;;6.40;84.70;;;;;;5032496;28;20037;-49
2021/01/21 02:43:55;;;;;;;14.02;6.90;;;6.50;84.70;;;;;;5014521;28;20034;-49
2021/01/21 02:46:21;;;;;;;14.10;7.13;;;6.40;84.70;;;;;;5013467;28;20387;-49
2021/01/21 02:48:50;;;;;;;12.70;6.13;;;6.40;84.70;;;;;;5013048;28;20422;-50
2021/01/21 02:51:38;;;;;;;11.77;5.25;;;6.50;84.80;;;;;;5013000;28;20022;-49
2021/01/21 02:54:19;;;;;;;13.63;6.28;;;6.40;84.70;;;;;;5019615;28;20044;-49
2021/01/21 02:56:45;;;;;;;;;;;6.40;84.70;;;;;;5033928;28;20033;-50
2021/01/21 02:59:16;;;;;;;13.60;5.93;;;6.40;84.70;;;;;;5032273;28;19917;-49
2021/01/21 03:01:45;;;;;;;12.05;6.80;;;6.40;84.70;;;;;;5032745;28;20021;-49
2021/01/21 03:04:12;;;;;;;13.48;6.70;;;6.40;84.70;;;;;;5031437;28;20057;-49
2021/01/21 03:06:41;;;;;;;17.98;7.15;;;6.40;84.70;;;;;;5018731;28;20046;-50
2021/01/21 03:09:07;;;;;;;13.50;6.65;;;6.40;84.70;;;;;;5013019;28;20101;-49
2021/01/21 03:11:32;;;;;;;13.90;6.60;;;6.40;84.70;;;;;;5021304;28;20447;-49
2021/01/21 03:13:58;;;;;;;12.13;6.10;;;6.40;84.70;;;;;;5032809;28;20024;-49
2021/01/21 03:16:24;;;;;;;10.57;6.00;;;6.40;84.80;;;;;;5036465;28;20248;-49
2021/01/21 03:18:52;;;;;;;12.85;6.38;;;6.40;84.80;;;;;;5036147;28;20033;-49
2021/01/21 03:21:19;;;;;;;14.63;6.40;;;6.40;84.80;;;;;;5036615;28;20079;-49
2021/01/21 03:23:45;;;;;;;11.98;5.82;;;6.40;84.80;;;;;;5036400;28;20032;-49
2021/01/21 03:26:12;;;;;;;11.75;6.03;;;6.50;84.90;;;;;;5025949;28;20427;-49
2021/01/21 03:28:38;;;;;;;16.65;7.47;;;6.40;84.80;;;;;;5024420;28;20044;-49
2021/01/21 03:31:04;;;;;;;13.25;6.72;;;6.40;84.70;;;;;;5035145;28;20056;-50
2021/01/21 03:33:30;;;;;;;11.52;6.32;;;6.40;84.80;;;;;;5031764;28;20029;-49
2021/01/21 03:35:56;;;;;;;11.25;6.47;;;6.50;84.80;;;;;;5030084;28;20025;-50
2021/01/21 03:38:21;;;;;;;13.40;6.15;;;6.50;84.80;;;;;;5019992;28;20470;-50
2021/01/21 03:40:47;;;;;;;9.80;5.75;;;6.40;84.70;;;;;;5036222;28;20026;-50
2021/01/21 03:43:13;;;;;;;9.32;5.93;;;6.40;84.70;;;;;;5028585;28;20363;-49
2021/01/21 03:45:38;;;;;;;17.50;6.22;;;6.40;84.70;;;;;;5015987;28;20037;-50
2021/01/21 03:48:04;;;;;;;11.68;6.50;;;6.40;84.70;;;;;;5017109;28;20032;-49
2021/01/21 03:50:30;;;;;;;16.63;5.97;;;6.40;84.70;;;;;;5015884;28;20142;-49
2021/01/21 03:52:56;;;;;;;13.88;5.55;;;6.40;84.70;;;;;;5015902;28;20122;-49
2021/01/21 03:55:21;;;;;;;13.82;6.35;;;6.40;84.70;;;;;;5023683;28;20025;-49
2021/01/21 03:57:47;;;;;;;13.88;6.40;;;6.50;84.80;;;;;;5024190;28;20034;-50
2021/01/21 04:00:13;;;;;;;12.13;5.97;;;6.40;84.70;;;;;;5020973;28;20451;-49
2021/01/21 04:02:39;;;;;;;11.30;5.47;;;6.40;84.70;;;;;;5035473;28;20026;-49
2021/01/21 04:05:05;;;;;;;10.40;5.65;;;6.50;84.80;;;;;;5033842;28;20107;-49
2021/01/21 04:07:30;;;;;;;11.85;5.43;;;6.50;84.80;;;;;;5016454;28;20033;-50
2021/01/21 04:09:56;;;;;;;11.50;5.82;;;6.50;84.80;;;;;;5015530;28;20065;-50
2021/01/21 04:12:21;;;;;;;17.65;6.20;;;6.50;84.70;;;;;;5015446;28;20030;-49
2021/01/21 04:14:47;;;;;;;13.20;6.03;;;6.50;84.70;;;;;;5015563;28;20072;-49
2021/01/21 04:17:13;;;;;;;9.68;5.70;;;6.50;84.70;;;;;;5015735;28;20038;-49
2021/01/21 04:19:38;;;;;;;11.35;5.50;;;6.50;84.80;;;;;;5016311;28;20452;-49
2021/01/21 04:22:04;;;;;;;17.98;7.13;;;6.50;84.80;;;;;;5015410;28;20026;-50
2021/01/21 04:24:29;;;;;;;10.77;4.80;;;6.50;84.80;;;;;;5015811;28;20030;-49
2021/01/21 04:26:55;;;;;;;10.13;5.07;;;6.50;84.80;;;;;;5015574;28;20468;-50
2021/01/21 04:29:21;;;;;;;10.73;4.97;;;6.50;84.80;;;;;;5016246;28;20427;-50
2021/01/21 04:31:46;;;;;;;11.23;6.15;;;6.50;84.80;;;;;;5015448;28;20079;-49
2021/01/21 04:34:12;;;;;;;13.02;5.28;;;6.50;84.80;;;;;;5015296;28;20127;-50
2021/01/21 04:36:38;;;;;;;14.70;5.25;;;6.50;84.80;;;;;;5029548;28;20437;-50
2021/01/21 04:39:04;;;;;;;15.13;5.82;;;6.50;84.80;;;;;;5032869;28;20038;-50
2021/01/21 04:41:30;;;;;;;10.95;5.43;;;6.50;84.70;;;;;;5035255;28;20030;-50
2021/01/21 04:43:55;;;;;;;11.15;6.10;;;6.50;84.70;;;;;;5034219;28;20033;-50
2021/01/21 04:46:21;;;;;;;13.48;6.30;;;6.50;84.60;;;;;;5035029;28;20057;-50
2021/01/21 04:48:48;;;;;;;9.32;5.03;;;6.50;84.60;;;;;;5034523;28;20026;-50
2021/01/21 04:51:15;;;;;;;11.00;5.85;;;6.50;84.60;;;;;;5033711;28;20047;-50
2021/01/21 04:53:48;;;;;;;9.27;4.80;;;6.50;84.60;;;;;;5034379;28;20112;-50
2021/01/21 04:56:21;;;;;;;12.85;5.50;;;6.50;84.50;;;;;;5034654;28;20064;-50
2021/01/21 04:58:51;;;;;;;12.75;5.32;;;6.60;84.60;;;;;;5034376;28;20370;-50
2021/01/21 05:01:18;;;;;;;13.18;6.00;;;6.50;84.60;;;;;;5033104;28;20030;-50
2021/01/21 05:03:45;;;;;;;8.63;5.13;;;6.50;84.60;;;;;;5026073;28;20109;-50
2021/01/21 05:06:11;;;;;;;9.38;4.90;;;6.50;84.50;;;;;;5025825;28;20029;-50
2021/01/21 05:08:37;;;;;;;7.93;5.25;;;6.60;84.60;;;;;;5034004;28;20041;-50
2021/01/21 05:11:02;;;;;;;14.82;6.03;;;6.60;84.50;;;;;;5027393;28;20030;-50
2021/01/21 05:13:28;;;;;;;11.27;4.95;;;6.60;84.50;;;;;;5014637;28;20033;-50
2021/01/21 05:15:54;;;;;;;12.50;5.53;;;6.60;84.50;;;;;;5029420;28;20037;-50
2021/01/21 05:18:32;;;;;;;9.93;5.10;;;6.60;84.50;;;;;;5034303;28;20052;-50
2021/01/21 05:20:58;;;;;;;12.57;5.70;;;6.60;84.50;;;;;;5031434;28;20025;-50
2021/01/21 05:23:28;;;;;;;11.25;5.72;;;6.60;84.50;;;;;;5034432;28;20103;-50
2021/01/21 05:25:54;;;;;;;8.88;4.68;;;6.60;84.50;;;;;;5034031;28;20098;-49
2021/01/21 05:28:20;;;;;;;13.48;5.45;;;6.60;84.50;;;;;;5033840;28;20461;-50
2021/01/21 05:30:48;;;;;;;12.38;5.45;;;6.60;84.40;;;;;;5014130;28;20021;-50
2021/01/21 05:33:15;;;;;;;8.98;4.40;;;6.60;84.40;;;;;;5023044;28;20037;-50
2021/01/21 05:35:41;;;;;;;10.90;5.38;;;6.60;84.50;;;;;;5022374;28;20037;-50
2021/01/21 05:38:08;;;;;;;12.38;5.47;;;6.60;84.40;;;;;;5023650;28;20087;-50
2021/01/21 05:40:35;;;;;;;10.73;5.28;;;6.60;84.50;;;;;;5021162;28;20037;-50
2021/01/21 05:43:02;;;;;;;12.25;5.65;;;6.60;84.50;;;;;;5020506;28;20375;-50
2021/01/21 05:45:28;;;;;;;13.73;4.78;;;6.60;84.50;;;;;;5028220;28;20033;-50
2021/01/21 05:47:54;;;;;;;8.60;4.22;;;6.60;84.40;;;;;;5023140;28;20025;-50
2021/01/21 05:50:21;;;;;;;10.18;5.07;;;6.60;84.50;;;;;;5019311;28;20041;-50
2021/01/21 05:52:46;;;;;;;8.90;4.32;;;6.60;84.40;;;;;;5021012;28;20029;-50
2021/01/21 05:55:12;;;;;;;10.15;4.60;;;6.60;84.40;;;;;;5022776;28;20026;-50
2021/01/21 05:57:38;;;;;;;14.30;5.32;;;6.60;84.30;;;;;;5019476;28;20038;-50
2021/01/21 06:00:05;;;;;;;11.88;5.97;;;6.60;84.30;;;;;;5023376;28;20029;-50
2021/01/21 06:02:32;;;;;;;9.55;4.85;;;6.60;84.30;;;;;;5023543;28;20086;-50
2021/01/21 06:05:03;;;;;;;10.88;4.78;;;6.60;84.30;;;;;;5024216;28;20038;-50
2021/01/21 06:07:31;;;;;;;12.18;5.32;;;6.60;84.40;;;;;;5024717;28;20029;-50
2021/01/21 06:09:58;;;;;;;11.65;4.78;;;6.60;84.30;;;;;;5019102;28;20028;-50
2021/01/21 06:12:28;;;;;;;10.40;4.95;;;6.60;84.40;;;;;;5014960;28;20053;-50
2021/01/21 06:15:01;;;;;;;10.82;5.15;;;6.60;84.40;;;;;;5016342;28;20091;-50
2021/01/21 06:17:28;;;;;;;9.80;5.05;;;6.60;84.50;;;;;;5019399;28;20040;-50
2021/01/21 06:19:53;;;;;;;12.35;5.32;;;6.60;84.40;;;;;;5015337;28;20038;-50
2021/01/21 06:22:27;;;;;;;11.73;5.20;;;6.60;84.30;;;;;;5014817;28;20078;-50
2021/01/21 06:24:58;;;;;;;10.10;4.85;;;6.60;84.20;;;;;;5026813;28;20041;-50
2021/01/21 06:27:26;;;;;;;8.98;4.97;;;6.60;84.20;;;;;;5023906;28;20128;-50
2021/01/21 06:29:55;;;;;;;10.55;4.28;;;6.60;84.10;;;;;;5028861;28;20083;-49
2021/01/21 06:32:27;;;;;;;8.45;4.65;;;6.60;84.10;;;;;;5032130;28;20025;-50
2021/01/21 06:34:55;;;;;;;8.02;4.18;;;6.60;84.00;;;;;;5024175;28;20041;-49
2021/01/21 06:37:24;;;;;;;10.07;4.80;;;6.60;84.00;;;;;;5023216;28;20033;-50
2021/01/21 06:39:53;;;;;;;9.15;4.38;;;6.60;84.00;;;;;;5022880;28;20030;-50
2021/01/21 06:42:29;;;;;;;10.15;4.75;;;6.60;84.00;;;;;;5020729;28;20081;-50
2021/01/21 06:44:56;;;;;;;13.57;3.97;;;6.60;84.00;;;;;;5017911;28;20026;-50
2021/01/21 06:47:22;;;;;;;5.72;3.55;;;6.60;83.90;;;;;;5022883;28;20026;-50
2021/01/21 06:49:54;;;;;;;6.35;4.03;;;6.60;84.00;;;;;;5025182;28;20014;-50
2021/01/21 06:52:20;;;;;;;11.65;4.40;;;6.60;84.00;;;;;;5029366;28;20084;-50
2021/01/21 06:54:46;;;;;;;6.38;3.67;;;6.60;84.00;;;;;;5025886;28;20022;-49
2021/01/21 06:57:34;;;;;;;8.15;3.75;;;6.60;84.00;;;;;;5026619;28;20033;-49
2021/01/21 07:00:32;;;;;;;11.07;4.47;;;6.60;83.90;;;;;;5023794;28;20041;-50
2021/01/21 07:02:57;;;;;;;7.55;3.78;;;6.60;83.90;;;;;;5023623;28;20044;-50
2021/01/21 07:05:25;;;;;;;12.20;4.18;;;6.60;84.70;;;;;;5026677;28;20022;-49
2021/01/21 07:07:56;;;;;;;9.43;4.20;;;6.60;83.90;;;;;;5023278;28;20108;-50
2021/01/21 07:10:42;;;;;;;12.05;4.57;;;6.60;83.90;;;;;;5025968;28;20130;-49
2021/01/21 07:13:09;;;;;;;7.60;3.65;;;6.60;84.60;;;;;;5036554;28;20474;-50
2021/01/21 07:15:50;;;;;;;10.05;4.43;;;6.60;83.80;;;;;;5028531;28;20025;-49
2021/01/21 07:18:22;;;;;;;6.93;3.25;;;6.60;83.80;;;;;;5031403;28;20038;-49
2021/01/21 07:21:17;;;;;;;10.02;3.95;;;6.70;83.90;;;;;;5032213;28;20029;-50
2021/01/21 07:23:48;;;;;;;6.25;3.35;;;6.60;83.80;;;;;;5034481;28;20455;-49
2021/01/21 07:26:20;;;;;;;8.77;3.22;;;6.70;83.80;;;;;;5030723;28;20036;-50
2021/01/21 07:29:10;;;;;;;6.70;3.38;;;6.70;83.90;;;;;;5023466;28;20032;-50
2021/01/21 07:31:50;;;;;;;9.93;4.18;;;6.70;83.80;;;;;;5034018;28;20029;-50
2021/01/21 07:34:28;;;;;;;5.70;3.53;;;6.70;83.80;;;;;;5016684;28;20040;-50
2021/01/21 07:37:24;;;;;;;8.60;3.75;;;6.70;83.80;;;;;;5023924;28;20028;-50
2021/01/21 07:39:56;;;;;;;9.70;3.40;;;6.70;83.80;;;;;;5018036;28;20046;-50
2021/01/21 07:42:42;;;;;;;6.75;3.80;;;6.70;83.80;;;;;;5020690;28;20029;-50
2021/01/21 07:45:20;;;;;;;5.60;2.90;;;6.70;83.70;;;;;;5035262;28;20061;-50
2021/01/21 07:47:47;;;;;;;5.32;3.20;;;6.70;83.70;;;;;;5032366;28;20036;-50
2021/01/21 07:50:19;;;;;;;8.68;3.58;;;6.70;83.70;;;;;;5028892;28;20038;-50
2021/01/21 07:52:51;;;;;;;4.13;2.90;;;6.70;83.60;;;;;;5029450;28;20033;-50
2021/01/21 07:55:38;;;;;;;4.28;2.75;;;6.70;83.60;;;;;;5031389;28;20104;-50
2021/01/21 07:58:22;;;;;;;11.38;3.10;;;6.70;83.60;;;;;;5035684;28;20450;-50
2021/01/21 08:00:55;;;;;;;5.35;2.58;;;6.80;83.60;;;;;;5030925;28;20079;-50
2021/01/21 08:03:40;;;;;;;6.32;2.50;;;6.80;83.60;;;;;;5033968;28;20079;-49
2021/01/21 08:06:13;;;;;;;4.18;2.65;;;6.80;83.60;;;;;;5023268;28;20444;-50
2021/01/21 08:08:41;;;;;;;5.10;2.25;;;6.80;83.50;;;;;;5029766;28;20026;-50
2021/01/21 08:11:10;;;;;;;5.38;2.83;;;6.80;83.50;;;;;;5016609;28;20447;-50
2021/01/21 08:13:35;;;;;;;5.75;2.22;;;6.80;83.50;;;;;;5018778;28;20022;-49
2021/01/21 08:16:03;;;;;;;6.32;2.15;;;6.80;83.50;;;;;;5035180;28;20030;-50
2021/01/21 08:18:29;;;;;;;5.00;2.13;;;6.80;83.40;;;;;;5023320;28;20124;-50
2021/01/21 08:20:54;;;;;;;4.15;1.85;;;6.90;83.40;;;;;;5026162;28;20446;-50
2021/01/21 08:23:20;;;;;;;2.70;1.80;;;6.90;83.40;;;;;;5027576;28;20040;-49
2021/01/21 08:25:49;;;;;;;2.00;1.77;;;6.90;83.40;;;;;;5033521;28;20083;-50
2021/01/21 08:28:19;;;;;;;4.70;2.50;;;6.90;83.30;;;;;;5029733;28;20029;-50
2021/01/21 08:30:46;;;;;;;3.95;1.90;;;6.90;83.30;;;;;;5014952;28;20049;-50
2021/01/21 08:33:22;;;;;;;6.43;2.08;;;7.00;83.30;;;;;;5016989;28;20037;-50
2021/01/21 08:35:56;;;;;;;2.83;1.85;;;7.00;83.20;;;;;;5026513;28;20093;-50
2021/01/21 08:38:30;;;;;;;2.05;1.52;;;7.00;83.20;;;;;;5020808;28;20042;-50
2021/01/21 08:40:56;;;;;;;5.82;2.78;;;7.10;83.30;;;;;;5024224;28;20048;-50
2021/01/21 08:43:23;;;;;;;5.20;1.67;;;7.10;83.30;;;;;;5027492;28;20041;-50
2021/01/21 08:45:50;;;;;;;6.18;2.97;;;7.10;83.10;;;;;;5025465;28;20026;-49
2021/01/21 08:48:32;;;;;;;5.50;2.47;;;7.10;83.30;;;;;;5016539;28;20029;-50
2021/01/21 08:50:59;;;;;;;3.38;2.28;;;7.10;83.30;;;;;;5025068;28;20073;-50
2021/01/21 08:53:30;;;;;;;4.13;2.38;;;7.10;83.30;;;;;;5032505;28;20026;-50
2021/01/21 08:55:59;;;;;;;5.85;2.30;;;7.20;83.40;;;;;;5024336;28;20038;-50
2021/01/21 08:58:29;;;;;;;7.28;2.90;;;7.20;83.50;;;;;;5025844;28;20047;-50
2021/01/21 09:01:12;;;;;;;3.92;2.03;;;7.20;83.30;;;;;;5031092;28;20041;-50
2021/01/21 09:03:44;;;;;;;6.68;2.03;;;7.30;83.50;;;;;;5022272;28;20033;-50
2021/01/21 09:06:11;;;;;;;3.05;2.45;;;7.30;83.50;;;;;;5023730;28;21364;-50
2021/01/21 09:08:50;;;;;;;4.38;2.70;;;7.30;83.60;;;;;;5017446;28;20029;-49
2021/01/21 09:11:39;;;;;;;3.58;2.35;;;7.30;83.70;;;;;;5029070;28;20037;-49
2021/01/21 09:14:15;;;;;;;4.95;2.38;;;7.30;83.80;;;;;;5028218;28;20033;-50
2021/01/21 09:16:45;;;;;;;4.43;2.03;;;7.30;83.80;;;;;;5024318;28;20048;-50
2021/01/21 09:19:14;;;;;;;3.92;2.35;;;7.30;84.00;;;;;;5023413;28;20026;-49
2021/01/21 09:21:57;;;;;;;1.73;1.30;;;7.30;84.10;;;;;;5021614;28;20308;-50
2021/01/21 09:24:23;;;;;;;4.25;1.67;;;7.40;84.00;;;;;;5022259;28;20074;-50
2021/01/21 09:27:11;;;;;;;5.57;1.40;;;7.40;83.70;;;;;;5021098;28;20175;-50
2021/01/21 09:29:55;;;;;;;0.80;0.80;;;7.40;83.70;;;;;;5021262;28;20053;-50
2021/01/21 09:32:26;;;;;;;0.45;0.45;;;7.40;83.90;;;;;;5025406;28;20022;-50
2021/01/21 09:34:59;;;;;;;6.97;2.80;;;7.40;84.00;;;;;;5015154;28;20355;-50
2021/01/21 09:37:27;;;;;;;3.10;1.65;;;7.50;84.10;;;;;;5018314;28;20446;-50
2021/01/21 09:39:53;;;;;;;2.17;1.23;;;7.50;84.10;;;;;;5018212;28;20038;-50
2021/01/21 09:42:20;;;;;;;4.70;2.15;;;7.50;84.10;;;;;;5024156;28;20459;-50
2021/01/21 09:44:46;;;;;;;1.05;0.93;;;7.50;84.10;;;;;;5022326;28;20060;-50
2021/01/21 09:47:12;;;;;;;5.53;2.05;;;7.60;84.10;;;;;;5023447;28;20022;-49
2021/01/21 09:49:40;;;;;;;4.28;1.70;;;7.60;83.60;;;;;;5018506;28;20022;-50
2021/01/21 09:52:06;;;;;;;0.40;0.40;;;7.60;83.30;;;;;;5020409;28;20124;-50
2021/01/21 09:54:32;;;;;;;3.05;1.65;;;7.70;83.10;;;;;;5025101;28;20399;-50
2021/01/21 09:56:58;;;;;;;2.90;1.23;;;7.70;83.20;;;;;;5023414;28;20033;-50
2021/01/21 09:59:24;;;;;;;20.30;1.52;;;7.80;83.30;;;;;;5014851;28;20091;-50
2021/01/21 10:01:50;;;;;;;1.90;1.60;;;7.80;83.10;;;;;;5021579;28;20090;-50
2021/01/21 10:04:16;;;;;;;25.55;2.05;;;7.90;83.10;;;;;;5025401;28;20386;-50
2021/01/21 10:06:41;;;;;;;1.45;0.52;;;7.90;83.00;;;;;;5021893;28;20026;-50
2021/01/21 10:09:08;;;;;;;3.58;1.80;;;7.90;82.90;;;;;;5028404;28;20033;-50
2021/01/21 10:11:33;;;;;;;2.08;1.10;;;7.90;83.10;;;;;;5033155;28;20029;-50
2021/01/21 10:14:00;;;;;;;3.63;0.75;;;8.00;82.90;;;;;;5025076;28;20112;-50
2021/01/21 10:16:27;;;;;;;0.68;0.68;;;8.00;82.90;;;;;;5030391;28;20450;-50
2021/01/21 10:18:53;;;;;;;4.38;1.88;;;8.10;83.00;;;;;;5025334;28;20033;-50
2021/01/21 10:21:18;;;;;;;1.95;1.15;;;8.10;82.80;;;;;;5020138;28;20117;-50
2021/01/21 10:23:44;;;;;;;4.55;1.77;;;8.10;82.70;;;;;;5032604;28;20032;-50
2021/01/21 10:26:09;;;;;;;1.77;1.17;;;8.10;82.80;;;;;;5025937;28;20017;-50
2021/01/21 10:28:35;;;;;;;1.58;1.38;;;8.10;82.80;;;;;;5025858;28;20039;-50
2021/01/21 10:31:00;;;;;;;2.05;1.85;;;8.10;82.80;;;;;;5030627;28;20108;-50
2021/01/21 10:33:26;;;;;;;2.42;1.83;;;8.10;82.80;;;;;;5023029;28;20036;-50
2021/01/21 10:35:52;;;;;;;1.38;1.05;;;8.10;82.80;;;;;;5021353;28;20095;-50
2021/01/21 10:38:17;;;;;;;2.15;1.45;;;8.20;83.10;;;;;;5022067;28;20348;-50
2021/01/21 10:40:43;;;;;;;2.42;1.20;;;8.10;83.10;;;;;;5018156;28;20532;-50
2021/01/21 10:43:09;;;;;;;3.20;0.82;;;8.10;83.10;;;;;;5024219;28;20455;-50
2021/01/21 10:45:34;;;;;;;0.95;0.80;;;8.20;82.80;;;;;;5021498;28;20112;-50
2021/01/21 10:48:00;;;;;;;2.58;1.58;;;8.20;83.10;;;;;;5021291;28;20105;-50
2021/01/21 10:50:26;;;;;;;0.68;0.55;;;8.20;83.50;;;;;;5022326;28;20022;-50
2021/01/21 10:52:51;;;;;;;1.02;1.02;;;8.20;83.60;;;;;;5022575;28;20033;-50
2021/01/21 10:55:17;;;;;;;0.47;0.47;;;8.20;84.00;;;;;;5016395;28;20030;-50
2021/01/21 10:57:43;;;;;;;2.55;1.08;;;8.20;84.30;;;;;;5028180;28;20499;-50
2021/01/21 11:00:09;;;;;;;3.95;1.10;;;8.30;84.30;;;;;;5028615;28;20038;-50
2021/01/21 11:02:35;;;;;;;1.00;0.75;;;8.30;83.50;;;;;;5016959;28;20368;-50
2021/01/21 11:05:00;;;;;;;2.75;1.10;;;8.30;83.90;;;;;;5013905;28;20451;-50
2021/01/21 11:07:26;;;;;;;1.95;1.65;;;8.30;83.80;;;;;;5022873;28;20028;-49
2021/01/21 11:09:51;;;;;;;0.85;0.73;;;8.30;84.00;;;;;;5016938;28;20118;-50
2021/01/21 11:12:17;;;;;;;2.05;1.27;;;8.30;84.30;;;;;;5012836;28;20396;-50
2021/01/21 11:14:45;;;;;;;2.05;1.60;;;8.30;84.40;;;;;;5025930;28;20402;-50
2021/01/21 11:17:10;;;;;;;0.93;0.73;;;8.20;84.20;;;;;;5032537;28;20446;-49
2021/01/21 11:19:36;;;;;;;1.33;0.68;;;8.20;84.30;;;;;;5028507;28;20042;-50
2021/01/21 11:22:02;;;;;;;1.02;0.95;;;8.20;84.30;;;;;;5030460;28;20032;-50
2021/01/21 11:24:27;;;;;;;2.72;1.48;;;8.20;84.30;;;;;;5021169;28;20037;-50
2021/01/21 11:26:53;;;;;;;1.15;0.98;;;8.10;84.40;;;;;;5017007;28;20036;-50
2021/01/21 11:29:18;;;;;;;2.20;1.52;;;8.10;84.60;;;;;;5019425;28;20033;-50
2021/01/21 11:31:44;;;;;;;5.15;1.17;;;8.20;84.50;;;;;;5012714;28;20092;-50
2021/01/21 11:34:10;;;;;;;4.45;2.05;;;8.10;84.60;;;;;;5014269;28;20022;-49
2021/01/21 11:36:35;;;;;;;2.83;1.13;;;8.20;84.60;;;;;;5016732;28;20026;-50
2021/01/21 11:39:01;;;;;;;2.78;1.40;;;8.10;85.00;;;;;;5016522;28;20091;-50
2021/01/21 11:41:27;;;;;;;3.95;1.60;;;8.20;85.00;;;;;;5018819;28;20026;-50
2021/01/21 11:43:52;;;;;;;3.58;1.55;;;8.20;85.00;;;;;;5026211;28;20462;-50
2021/01/21 11:46:18;;;;;;;8.55;1.60;;;8.20;85.20;;;;;;5021094;28;20025;-49
2021/01/21 11:48:44;;;;;;;2.45;0.90;;;8.20;85.20;;;;;;5022668;28;20293;-50
2021/01/21 11:51:09;;;;;;;1.58;1.10;;;8.20;85.00;;;;;;5016634;28;20022;-50
2021/01/21 11:53:35;;;;;;;0.30;0.30;;;8.20;84.90;;;;;;5021873;28;20033;-50
2021/01/21 11:56:02;;;;;;;2.50;1.40;;;8.20;84.80;;;;;;5023413;28;20029;-50
2021/01/21 11:58:28;;;;;;;0.73;0.50;;;8.20;84.70;;;;;;5022936;28;20115;-50
2021/01/21 12:00:53;;;;;;;0.63;0.60;;;8.20;84.80;;;;;;5026030;28;20487;-50
2021/01/21 12:03:19;;;;;;;3.75;1.50;;;8.20;85.00;;;;;;5018589;28;20384;-50
2021/01/21 12:05:45;;;;;;;1.23;0.75;;;8.20;84.90;;;;;;5021586;28;20025;-50
2021/01/21 12:08:10;;;;;;;10.73;0.90;;;8.20;84.90;;;;;;5032007;28;20513;-49
2021/01/21 12:10:36;;;;;;;0.93;0.85;;;8.20;84.80;;;;;;5023084;28;20447;-50
2021/01/21 12:13:02;;;;;;;0.90;0.90;;;8.20;84.90;;;;;;5022424;28;20510;-50
2021/01/21 12:15:27;;;;;;;0.80;0.77;;;8.20;85.60;;;;;;5022027;28;20030;-50
2021/01/21 12:17:53;;;;;;;2.40;0.50;;;8.20;85.00;;;;;;5018984;28;20022;-50
2021/01/21 12:20:20;;;;;;;2.40;1.40;;;8.20;85.00;;;;;;5019740;28;20095;-50
2021/01/21 12:22:45;;;;;;;1.77;1.17;;;8.20;85.00;;;;;;5024565;28;20029;-50
2021/01/21 12:25:11;;;;;;;0.55;0.55;;;8.20;85.00;;;;;;5015709;28;20084;-49
2021/01/21 12:27:37;;;;;;;1.17;0.82;;;8.20;85.20;;;;;;5034598;28;20022;-50
2021/01/21 12:30:03;;;;;;;0.85;0.85;;;8.20;85.10;;;;;;5015956;28;20527;-50
2021/01/21 12:32:29;;;;;;;0.77;0.77;;;8.30;85.00;;;;;;5018409;28;20107;-50
2021/01/21 12:34:54;;;;;;;6.75;1.27;;;8.30;85.20;;;;;;5027677;28;20386;-50
2021/01/21 12:37:20;;;;;;;1.65;0.80;;;8.40;85.40;;;;;;5016628;28;20030;-50
2021/01/21 12:39:45;;;;;;;1.02;1.02;;;8.40;85.20;;;;;;5027331;28;20037;-50
2021/01/21 12:42:11;;;;;;;1.20;1.10;;;8.50;85.00;;;;;;5022676;28;20447;-50
2021/01/21 12:44:37;;;;;;;2.75;1.38;;;8.50;85.00;;;;;;5021356;28;20029;-50
2021/01/21 12:47:03;;;;;;;3.88;1.63;;;8.50;85.10;;;;;;5023261;28;20472;-50
2021/01/21 12:49:29;;;;;;;0.50;0.50;;;8.50;85.00;;;;;;5020082;28;20076;-50
2021/01/21 12:51:54;;;;;;;2.30;1.00;;;8.60;85.10;;;;;;5024251;28;20026;-50
2021/01/21 12:54:20;;;;;;;2.78;0.98;;;8.60;84.90;;;;;;5015751;28;20507;-50
2021/01/21 12:56:45;;;;;;;0.55;0.55;;;8.60;84.70;;;;;;5014682;28;20029;-50
2021/01/21 12:59:12;;;;;;;2.50;1.20;;;8.60;84.70;;;;;;5015576;28;20046;-50